»·PEaware :: N1511H KSLC-KLAS

N1511H :: KSLC-KLAS

FLIGHT INFORMATION

Flight Status: Arrived
Operator: Privately registered:
United States
More flights under this callsign
Pilot: Phillip S. (23877)
Aircraft: EMBRAER PHENOM 300
(E55P)
More flights by this aircraft type
Origin: KSLC Salt Lake City Intl
United States
Destination: KLAS McCarran Intl
United States
More flights between these airports :: More routes between these airports
Route: FFU9 MLF MPIRE SITEE4
File this flight plan on PilotEdge
Remarks: No Remarks
Altitude:
(Current/Filed)
36,000ft
Speed:
(Current/Filed)
400kts
Departed: 23-Mar-20 01:50 PM
Arrived: 23-Mar-20 02:54 PM
Distance/Time
Traveled:
320nm/1:04
Distance/Time
To Go:
Arrived

Flight Plot

Page will automatically refresh every two minutes.

Flight plan parsing failed; only flown route is shown


Map Options




Map Legend


Flown Route
Filed Route
Departure Airport
Arrival Airport
Navaid (VOR, NDB)
Fix

Horizontal Profiles

Position Reports

Time Latitude Longitude Heading Altitude Ground
Speed
23-Mar-20 13:24 40.774549 -111.958716 0 4230ft 0kts
23-Mar-20 13:25 40.774549 -111.958716 0 4230ft 0kts
23-Mar-20 13:26 40.774549 -111.958716 0 4230ft 0kts
23-Mar-20 13:27 40.774549 -111.958716 0 4230ft 0kts
23-Mar-20 13:28 40.774549 -111.958716 0 4230ft 0kts
23-Mar-20 13:29 40.774549 -111.958716 0 4230ft 0kts
23-Mar-20 13:30 40.774549 -111.958716 0 4230ft 0kts
23-Mar-20 13:30 40.774549 -111.958716 0 4230ft 0kts
23-Mar-20 13:32 40.774549 -111.958716 0 4230ft 0kts
23-Mar-20 13:33 40.774549 -111.958716 0 4230ft 0kts
23-Mar-20 13:33 40.774549 -111.958716 0 4230ft 0kts
23-Mar-20 13:34 40.774549 -111.958716 0 4230ft 0kts
23-Mar-20 13:36 40.774549 -111.958716 0 4230ft 0kts
23-Mar-20 13:36 40.774549 -111.958716 0 4230ft 0kts
23-Mar-20 13:37 40.774549 -111.958716 0 4230ft 0kts
23-Mar-20 13:38 40.774549 -111.958716 0 4230ft 0kts
23-Mar-20 13:39 40.774549 -111.958716 0 4230ft 0kts
23-Mar-20 13:40 40.774523 -111.958716 0 4230ft 1kts
23-Mar-20 13:41 40.774318 -111.958716 0 4230ft 0kts
23-Mar-20 13:42 40.776091 -111.960642 0 4230ft 20kts
23-Mar-20 13:43 40.783428 -111.959936 359 4230ft 31kts
23-Mar-20 13:44 40.789779 -111.959917 0 4230ft 23kts
23-Mar-20 13:45 40.796403 -111.959908 1 4230ft 19kts
23-Mar-20 13:46 40.798843 -111.960693 269 4230ft 0kts
23-Mar-20 13:47 40.798843 -111.960778 269 4230ft 1kts
23-Mar-20 13:48 40.798004 -111.961937 197 4230ft 7kts
23-Mar-20 13:49 40.777443 -111.962124 179 4908ft 162kts
23-Mar-20 13:50 40.718413 -111.951890 172 7899ft 246kts
23-Mar-20 13:51 40.648832 -111.942702 182 10190ft 246kts
23-Mar-20 13:52 40.570390 -111.943062 182 12947ft 309kts
23-Mar-20 13:53 40.478938 -111.942342 182 15675ft 342kts
23-Mar-20 13:54 40.381979 -111.941477 182 18467ft 352kts
23-Mar-20 13:55 40.284019 -111.941081 184 21263ft 350kts
23-Mar-20 13:56 40.185267 -111.953481 188 22805ft 378kts
23-Mar-20 13:57 40.083578 -111.968343 188 25483ft 362kts
23-Mar-20 13:58 39.982310 -111.983025 190 27307ft 368kts
23-Mar-20 13:59 39.880329 -111.997754 190 28992ft 371kts
23-Mar-20 14:00 39.775734 -112.012821 190 30012ft 386kts
23-Mar-20 14:01 39.667408 -112.028357 190 31017ft 394kts
23-Mar-20 14:02 39.558012 -112.043987 190 32010ft 397kts
23-Mar-20 14:03 39.447833 -112.059698 191 33009ft 397kts
23-Mar-20 14:04 39.337857 -112.075325 192 34012ft 395kts
23-Mar-20 14:05 39.229066 -112.090732 192 35010ft 391kts
23-Mar-20 14:06 39.125822 -112.120187 214 35957ft 370kts
23-Mar-20 14:07 39.048018 -112.207071 225 36051ft 375kts
23-Mar-20 14:08 38.971251 -112.298036 225 36056ft 375kts
23-Mar-20 14:09 38.894508 -112.388840 225 36073ft 374kts
23-Mar-20 14:10 38.817872 -112.479255 225 36055ft 373kts
23-Mar-20 14:11 38.741160 -112.569487 225 36059ft 372kts
23-Mar-20 14:12 38.664810 -112.659017 225 36061ft 371kts
23-Mar-20 14:13 38.588371 -112.748384 225 36012ft 372kts
23-Mar-20 14:14 38.512289 -112.837066 225 36000ft 371kts
23-Mar-20 14:15 38.435798 -112.925939 225 36000ft 371kts
23-Mar-20 14:16 38.357626 -113.012076 218 36006ft 375kts
23-Mar-20 14:17 38.263519 -113.072696 211 36026ft 379kts
23-Mar-20 14:18 38.168682 -113.131133 211 36040ft 379kts
23-Mar-20 14:19 38.073856 -113.189218 211 36052ft 379kts
23-Mar-20 14:20 37.978835 -113.247218 211 36067ft 379kts
23-Mar-20 14:21 37.883144 -113.305455 211 36077ft 379kts
23-Mar-20 14:22 37.788060 -113.363155 211 36076ft 380kts
23-Mar-20 14:23 37.692557 -113.420941 211 36073ft 381kts
23-Mar-20 14:24 37.596824 -113.478701 211 36076ft 381kts
23-Mar-20 14:25 37.500743 -113.536482 211 36093ft 381kts
23-Mar-20 14:26 37.404917 -113.593941 211 36106ft 381kts
23-Mar-20 14:27 37.311491 -113.649361 211 34813ft 370kts
23-Mar-20 14:28 37.218660 -113.705495 211 32813ft 369kts
23-Mar-20 14:29 37.127100 -113.762399 211 30819ft 367kts
23-Mar-20 14:30 37.036388 -113.820393 211 28818ft 365kts
23-Mar-20 14:31 36.946361 -113.879395 211 26823ft 367kts
23-Mar-20 14:32 36.855907 -113.940195 211 24823ft 371kts
23-Mar-20 14:33 36.784541 -114.026775 245 22838ft 368kts
23-Mar-20 14:34 36.733634 -114.130392 204 20837ft 361kts
23-Mar-20 14:35 36.633688 -114.110563 169 18892ft 359kts
23-Mar-20 14:36 36.554055 -114.138442 225 17154ft 289kts
23-Mar-20 14:37 36.508463 -114.216559 235 15693ft 270kts
23-Mar-20 14:38 36.468769 -114.293739 235 14498ft 261kts
23-Mar-20 14:39 36.430038 -114.369174 235 13381ft 259kts
23-Mar-20 14:40 36.390930 -114.445301 234 12168ft 262kts
23-Mar-20 14:41 36.351390 -114.522110 236 10521ft 262kts
23-Mar-20 14:42 36.313263 -114.595970 237 9000ft 231kts
23-Mar-20 14:43 36.282063 -114.656429 238 8138ft 185kts
23-Mar-20 14:44 36.255438 -114.708137 238 7986ft 188kts
23-Mar-20 14:45 36.225061 -114.767037 238 7631ft 219kts
23-Mar-20 14:46 36.191344 -114.832008 238 6169ft 224kts
23-Mar-20 14:47 36.160135 -114.892185 238 5986ft 195kts
23-Mar-20 14:48 36.136692 -114.942135 255 5982ft 184kts
23-Mar-20 14:49 36.137679 -115.005229 269 5406ft 192kts
23-Mar-20 14:50 36.138027 -115.066504 266 4159ft 169kts
23-Mar-20 14:51 36.142103 -115.123222 259 3054ft 155kts
23-Mar-20 14:52 36.111749 -115.146567 214 2817ft 131kts
23-Mar-20 14:53 36.085733 -115.164233 199 2118ft 33kts
23-Mar-20 14:54 36.083609 -115.166740 242 2118ft 0kts
23-Mar-20 14:55 36.082632 -115.168190 289 2118ft 15kts
23-Mar-20 14:56 36.083580 -115.169306 274 2118ft 0kts
23-Mar-20 14:57 36.083580 -115.169311 274 2118ft 0kts
23-Mar-20 14:58 36.083581 -115.169315 274 2118ft 0kts

Navigation Log

Ident Type
Flight plan parsing failed, navigation log unavailable